Unicom:                    122.8

AWOS:                  118.275

Elevation           1458’ MSL

TPA:                   2500’ MSL

06/24:         5003’ L   75’ W

PAPI:       06/Left     24/Left

(Operate lights on unicom freq.)

Traffic Pattern: Left

Beacon: Sunset to Sunrise

Windsock: yes, lighted

Segmented Circle: No

 

Cleveland Center: 126.72/291.65

FSS: Altoona

[Source: ADDS]
METAR
KFKL 080756Z AUTO 32003KT 5SM -RA BR FEW002 OVC035 02/01 A2985 RMK AO2 RAB15 SLP119 P0000 T00170011 FZRANO =
KFKL 080739Z 0808/0906 29003KT 2SM -SHRASN BR BKN030 FM081000 28005KT 4SM -SHRASN OVC015 FM081200 30007KT P6SM OVC007 FM081800 30007KT P6SM OVC025 FM082100 28006KT P6SM OVC050 FM090000 25003KT P6SM BKN050
TAF
KFKL 080739Z 0808/0906 29003KT 2SM -SHRASN BR BKN030 FM081000 28005KT 4SM -SHRASN OVC015 FM081200 30007KT P6SM OVC007 FM081800 30007KT P6SM OVC025 FM082100 28006KT P6SM OVC050 FM090000 25003KT P6SM BKN050 =
[Source: ADDS]
METAR
KDUJ 080753Z AUTO 00000KT 8SM SCT044 OVC055 01/00 A2981 RMK AO2 SLP106 I1000 T00110000 =
KDUJ 080615Z 0806/0906 00000KT 2SM BR BKN050 FM081000 29005KT 2SM -SHRASN BR OVC015 FM081200 30005KT 5SM -SHRA BKN007 FM081500 29009KT P6SM VCSH BKN015 FM082100 29011KT P6SM OVC050 FM090100 29004KT P6SM BKN050
TAF
KDUJ 080615Z 0806/0906 00000KT 2SM BR BKN050 FM081000 29005KT 2SM -SHRASN BR OVC015 FM081200 30005KT 5SM -SHRA BKN007 FM081500 29009KT P6SM VCSH BKN015 FM082100 29011KT P6SM OVC050 FM090100 29004KT P6SM BKN050 =

Airport Information. 

Runway Length: 5003ft x 75ft

Runways 6/24

Traffic Pattern: Left

PAPI’s: 2 light PAPI on left of both 6/24

TPA: 2500 msl

Field Elevation: 1458 msl

Surface: Asphalt

Beacon: Operates Sunset-Sunrise

Pilot Controlled Lighting:  yes 122.8

 

Fuel:

Jet-A w/prist

100 LL

Center point fueling available upon request.

 

Unicom Frequency: 122.8

AWOS Frequency: 118.27  (814-227-2899)

 

Cleveland Center: 126.72 (440-774-0442)

 

GPS Approach Plates for 6/24 download here: http://www.airnav.com/airport/KAXQ

[Source: ADDS]
METAR
KFKL 080756Z AUTO 32003KT 5SM -RA BR FEW002 OVC035 02/01 A2985 RMK AO2 RAB15 SLP119 P0000 T00170011 FZRANO =
KFKL 080739Z 0808/0906 29003KT 2SM -SHRASN BR BKN030 FM081000 28005KT 4SM -SHRASN OVC015 FM081200 30007KT P6SM OVC007 FM081800 30007KT P6SM OVC025 FM082100 28006KT P6SM OVC050 FM090000 25003KT P6SM BKN050
TAF
KFKL 080739Z 0808/0906 29003KT 2SM -SHRASN BR BKN030 FM081000 28005KT 4SM -SHRASN OVC015 FM081200 30007KT P6SM OVC007 FM081800 30007KT P6SM OVC025 FM082100 28006KT P6SM OVC050 FM090000 25003KT P6SM BKN050 =
[Source: ADDS]
METAR
KDUJ 080753Z AUTO 00000KT 8SM SCT044 OVC055 01/00 A2981 RMK AO2 SLP106 I1000 T00110000 =
KDUJ 080615Z 0806/0906 00000KT 2SM BR BKN050 FM081000 29005KT 2SM -SHRASN BR OVC015 FM081200 30005KT 5SM -SHRA BKN007 FM081500 29009KT P6SM VCSH BKN015 FM082100 29011KT P6SM OVC050 FM090100 29004KT P6SM BKN050
TAF
KDUJ 080615Z 0806/0906 00000KT 2SM BR BKN050 FM081000 29005KT 2SM -SHRASN BR OVC015 FM081200 30005KT 5SM -SHRA BKN007 FM081500 29009KT P6SM VCSH BKN015 FM082100 29011KT P6SM OVC050 FM090100 29004KT P6SM BKN050 =